AAY2627 KPIE-KJQF
Flight info
| Callsign | AAY2627 |
|---|---|
| Flight time | N/A |
| Altitude | 33000 |
| Route | BAYPO2 CAMJO HEPAR WANSA JOOLS1 |
| Aircraft | B38M/M-SDE1FGHILORVWXY/HB1 |
Departure
| Time | 2026-04-29 03:42 |
|---|---|
| Airport | St. Petersburg Clearwater International Airport (KPIE) |
Arrival
| Time | N/A |
|---|---|
| Airport | Concord-Padgett Regional Airport (KJQF) |
| Time | Latitude | Longitude | Altitude | Speed | Heading |
|---|---|---|---|---|---|
| 2026-04-29 03:18 | 27.90748 | -82.69251 | 27 ft | 0 kts | 178° |
| 2026-04-29 03:36 | 27.90773 | -82.69251 | 27 ft | 4 kts | 182° |
| 2026-04-29 03:36 | 27.90800 | -82.69250 | 27 ft | 4 kts | 180° |
| 2026-04-29 03:36 | 27.90825 | -82.69254 | 27 ft | 4 kts | 148° |
| 2026-04-29 03:36 | 27.90832 | -82.69264 | 27 ft | 0 kts | 88° |
| 2026-04-29 03:38 | 27.90832 | -82.69262 | 27 ft | 1 kts | 88° |
| 2026-04-29 03:39 | 27.90834 | -82.69197 | 27 ft | 16 kts | 88° |
| 2026-04-29 03:39 | 27.90839 | -82.69048 | 27 ft | 19 kts | 88° |
| 2026-04-29 03:39 | 27.90874 | -82.68973 | 26 ft | 10 kts | 350° |
| 2026-04-29 03:39 | 27.90991 | -82.68994 | 27 ft | 24 kts | 351° |
| 2026-04-29 03:40 | 27.91188 | -82.69029 | 28 ft | 32 kts | 351° |
| 2026-04-29 03:40 | 27.91412 | -82.69070 | 27 ft | 33 kts | 353° |
| 2026-04-29 03:40 | 27.91630 | -82.69104 | 26 ft | 31 kts | 350° |
| 2026-04-29 03:40 | 27.91847 | -82.69148 | 26 ft | 32 kts | 349° |
| 2026-04-29 03:41 | 27.92050 | -82.69178 | 28 ft | 28 kts | 353° |
| 2026-04-29 03:41 | 27.92235 | -82.69209 | 27 ft | 20 kts | 352° |
| 2026-04-29 03:41 | 27.92325 | -82.69124 | 25 ft | 18 kts | 82° |
| 2026-04-29 03:41 | 27.92270 | -82.69059 | 28 ft | 22 kts | 171° |
| 2026-04-29 03:42 | 27.91892 | -82.68993 | 26 ft | 87 kts | 171° |
| 2026-04-29 03:42 | 27.91109 | -82.68856 | 26 ft | 138 kts | 171° |
| 2026-04-29 03:42 | 27.90063 | -82.68692 | 263 ft | 155 kts | 172° |
| 2026-04-29 03:42 | 27.88995 | -82.68490 | 795 ft | 158 kts | 171° |
| 2026-04-29 03:43 | 27.87901 | -82.68250 | 1327 ft | 162 kts | 167° |
| 2026-04-29 03:43 | 27.86737 | -82.68040 | 1731 ft | 179 kts | 174° |
| 2026-04-29 03:43 | 27.85427 | -82.67854 | 2162 ft | 200 kts | 173° |
| 2026-04-29 03:43 | 27.83973 | -82.67628 | 2548 ft | 223 kts | 182° |
| 2026-04-29 03:44 | 27.82419 | -82.68174 | 2930 ft | 245 kts | 217° |
| 2026-04-29 03:44 | 27.81319 | -82.69616 | 3800 ft | 251 kts | 244° |
| 2026-04-29 03:44 | 27.80917 | -82.71503 | 4351 ft | 267 kts | 271° |
| 2026-04-29 03:44 | 27.81382 | -82.73492 | 5292 ft | 267 kts | 298° |
| 2026-04-29 03:45 | 27.82640 | -82.75084 | 6129 ft | 274 kts | 326° |
| 2026-04-29 03:45 | 27.84379 | -82.75892 | 6974 ft | 278 kts | 348° |
| 2026-04-29 03:45 | 27.86324 | -82.75930 | 7808 ft | 282 kts | 11° |
| 2026-04-29 03:45 | 27.88158 | -82.75119 | 8622 ft | 286 kts | 28° |
| 2026-04-29 03:46 | 27.89945 | -82.74095 | 9401 ft | 290 kts | 26° |
| 2026-04-29 03:46 | 27.91773 | -82.73076 | 10198 ft | 294 kts | 26° |
| 2026-04-29 03:46 | 27.93662 | -82.72033 | 10656 ft | 312 kts | 25° |
| 2026-04-29 03:46 | 27.95680 | -82.70931 | 10975 ft | 332 kts | 25° |
| 2026-04-29 03:47 | 27.97825 | -82.69760 | 11361 ft | 350 kts | 25° |
| 2026-04-29 03:47 | 28.00052 | -82.68540 | 11880 ft | 361 kts | 26° |
| 2026-04-29 03:47 | 28.02321 | -82.67289 | 12670 ft | 363 kts | 26° |
| 2026-04-29 03:47 | 28.04573 | -82.66045 | 13395 ft | 367 kts | 26° |
| 2026-04-29 03:48 | 28.06882 | -82.64768 | 14149 ft | 371 kts | 26° |
| 2026-04-29 03:48 | 28.09214 | -82.63476 | 14901 ft | 375 kts | 26° |
| 2026-04-29 03:48 | 28.11574 | -82.62168 | 15646 ft | 379 kts | 26° |
| 2026-04-29 03:48 | 28.13963 | -82.60844 | 16362 ft | 384 kts | 26° |
| 2026-04-29 03:49 | 28.16375 | -82.59506 | 17042 ft | 388 kts | 26° |
| 2026-04-29 03:49 | 28.18844 | -82.58255 | 17690 ft | 391 kts | 17° |
| 2026-04-29 03:49 | 28.21534 | -82.57795 | 18358 ft | 394 kts | 0° |
| 2026-04-29 03:49 | 28.24290 | -82.57805 | 18948 ft | 398 kts | 359° |
| 2026-04-29 03:50 | 28.27072 | -82.57846 | 19560 ft | 402 kts | 359° |
| 2026-04-29 03:50 | 28.28933 | -82.57886 | 19956 ft | 404 kts | 358° |